Time;durP1;ratioP1;P1;durP2;ratioP2;P2;SDS_P1;SDS_P2;PMS_P1;PMS_P2;Temp;Humidity;BMP_temperature;BMP_pressure;BME280_temperature;BME280_humidity;BME280_pressure;Samples;Min_cycle;Max_cycle;Signal;HPM_P1;HPM_P2
2022/08/01 00:01:32;;;;;;;;;;;;;;;-142.75;100.00;76198.28;5035062;28;19913;-65
2022/08/01 00:03:57;;;;;;;;;;;;;;;-142.75;100.00;76184.50;5035150;28;19914;-65
2022/08/01 00:06:22;;;;;;;;;;;;;;;-142.75;100.00;76196.31;5034997;28;20394;-65
2022/08/01 00:08:47;;;;;;;;;;;;;;;-142.75;100.00;76196.31;5034746;28;20433;-62
2022/08/01 00:11:13;;;;;;;;;;;;;;;-142.75;100.00;76192.38;5034940;28;19923;-62
2022/08/01 00:13:38;;;;;;;;;;;;;;;-142.75;100.00;76194.34;5034854;28;19913;-63
2022/08/01 00:16:04;;;;;;;;;;;;;;;-142.75;100.00;76188.44;5034821;28;20300;-63
2022/08/01 00:18:29;;;;;;;;;;;;;;;-142.75;100.00;76198.28;5034444;28;20028;-63
2022/08/01 00:20:54;;;;;;;;;;;;;;;-142.75;100.00;76196.31;5034696;28;19959;-63
2022/08/01 00:23:19;;;;;;;;;;;;;;;-142.75;100.00;76200.25;5013255;28;20546;-63
2022/08/01 00:25:44;;;;;;;;;;;;;;;-142.75;100.00;76214.00;5014410;28;19922;-63
2022/08/01 00:28:09;;;;;;;;;;;;;;;-142.75;100.00;76208.09;5014518;28;19921;-63
2022/08/01 00:30:35;;;;;;;;;;;;;;;-142.75;100.00;76202.19;5014553;28;19913;-62
2022/08/01 00:33:00;;;;;;;;;;;;;;;-142.75;100.00;76219.91;5014683;28;20571;-63
2022/08/01 00:35:26;;;;;;;;;;;;;;;-142.75;100.00;76219.91;5014647;28;20271;-63
2022/08/01 00:37:52;;;;;;;;;;;;;;;-142.75;100.00;76215.97;5014363;28;19919;-63
2022/08/01 00:40:17;;;;;;;;;;;;;;;-142.75;100.00;76215.97;5014308;28;20048;-62
2022/08/01 00:42:42;;;;;;;;;;;;;;;-142.75;100.00;76233.69;5014466;28;19920;-62
2022/08/01 00:45:08;;;;;;;;;;;;;;;-142.75;100.00;76231.72;5014491;28;20287;-62
2022/08/01 00:47:33;;;;;;;;;;;;;;;-142.75;100.00;76229.75;5014091;28;19981;-62
2022/08/01 00:49:58;;;;;;;;;;;;;;;-142.75;100.00;76239.59;5014262;28;19913;-62
2022/08/01 00:52:23;;;;;;;;;;;;;;;-142.75;100.00;76235.66;5014260;28;20187;-63
2022/08/01 00:54:49;;;;;;;;;;;;;;;-142.75;100.00;76225.81;5014266;28;19960;-63
2022/08/01 00:57:14;;;;;;;;;;;;;;;-142.75;100.00;76231.72;5013186;28;20529;-62
2022/08/01 00:59:40;;;;;;;;;;;;;;;-142.75;100.00;76229.75;5011588;28;19924;-62
2022/08/01 01:02:05;;;;;;;;;;;;;;;-142.75;100.00;76235.66;5012457;28;20007;-63
2022/08/01 01:04:30;;;;;;;;;;;;;;;-142.75;100.00;76249.44;5014110;28;19917;-65
2022/08/01 01:07:02;;;;;;;;;;;;;;;-142.75;100.00;76233.69;5013705;28;19917;-65
2022/08/01 01:09:30;;;;;;;;;;;;;;;-142.75;100.00;76223.84;5013823;28;19917;-65
2022/08/01 01:12:02;;;;;;;;;;;;;;;-142.75;100.00;76206.13;5013945;28;19914;-63
2022/08/01 01:14:36;;;;;;;;;;;;;;;-142.75;100.00;76206.13;5013960;28;20490;-63
2022/08/01 01:17:02;;;;;;;;;;;;;;;-142.75;100.00;76196.31;5013641;28;19968;-62
2022/08/01 01:19:30;;;;;;;;;;;;;;;-142.75;100.00;76202.19;5013813;28;19921;-63
2022/08/01 01:22:01;;;;;;;;;;;;;;;-142.75;100.00;76178.59;5013695;28;19953;-63
2022/08/01 01:24:26;;;;;;;;;;;;;;;-142.75;100.00;76178.59;5014025;28;19920;-62
2022/08/01 01:26:59;;;;;;;;;;;;;;;-142.75;100.00;76180.56;5013387;28;20000;-62
2022/08/01 01:29:30;;;;;;;;;;;;;;;-142.75;100.00;76188.44;5013770;28;19913;-62
2022/08/01 01:32:14;;;;;;;;;;;;;;;-142.75;100.00;76182.53;5013609;28;19913;-62
2022/08/01 01:34:40;;;;;;;;;;;;;;;-142.75;100.00;76212.03;5013599;28;19913;-62
2022/08/01 01:37:08;;;;;;;;;;;;;;;-142.75;100.00;76212.03;5013279;28;19967;-62
2022/08/01 01:39:34;;;;;;;;;;;;;;;-142.75;100.00;76215.97;5013394;28;20509;-62
2022/08/01 01:42:00;;;;;;;;;;;;;;;-142.75;100.00;76219.91;5013386;28;20059;-63
2022/08/01 01:44:27;;;;;;;;;;;;;;;-142.75;100.00;76223.84;5013438;28;19976;-62
2022/08/01 01:46:53;;;;;;;;;;;;;;;-142.75;100.00;76231.72;5012899;28;20469;-63
2022/08/01 01:49:21;;;;;;;;;;;;;;;-142.75;100.00;76239.59;5013367;28;19918;-63
2022/08/01 01:51:47;;;;;;;;;;;;;;;-142.75;100.00;76231.72;5013216;28;19913;-62
2022/08/01 01:54:12;;;;;;;;;;;;;;;-142.75;100.00;76235.66;5013268;28;19914;-62
2022/08/01 01:56:48;;;;;;;;;;;;;;;-142.75;100.00;76255.34;5012906;28;19914;-62
2022/08/01 01:59:14;;;;;;;;;;;;;;;-142.75;100.00;76269.13;5013189;28;20298;-62
2022/08/01 02:01:39;;;;;;;;;;;;;;;-142.75;100.00;76261.25;5012985;28;19920;-62
2022/08/01 02:04:06;;;;;;;;;;;;;;;-142.75;100.00;76277.00;5013086;28;20361;-62
2022/08/01 02:06:32;;;;;;;;;;;;;;;-142.75;100.00;76284.88;5012765;28;19921;-62
2022/08/01 02:09:00;;;;;;;;;;;;;;;-142.75;100.00;76267.16;5012916;28;20008;-62
2022/08/01 02:11:25;;;;;;;;;;;;;;;-142.75;100.00;76275.03;5011959;28;20379;-62
2022/08/01 02:13:56;;;;;;;;;;;;;;;-142.75;100.00;76286.84;5012803;28;19967;-62
2022/08/01 02:16:24;;;;;;;;;;;;;;;-142.75;100.00;76282.91;5012799;28;19914;-63
2022/08/01 02:18:49;;;;;;;;;;;;;;;-142.75;100.00;76290.78;5012638;28;19918;-62
2022/08/01 02:21:20;;;;;;;;;;;;;;;-142.75;100.00;76277.00;5012775;28;20334;-62
2022/08/01 02:23:45;;;;;;;;;;;;;;;-142.75;100.00;76271.09;5012827;28;19914;-62
2022/08/01 02:26:13;;;;;;;;;;;;;;;-142.75;100.00;76278.97;5012626;28;19929;-62
2022/08/01 02:28:50;;;;;;;;;;;;;;;-142.75;100.00;76278.97;5012386;28;19921;-65
2022/08/01 02:31:17;;;;;;;;;;;;;;;-142.75;100.00;76273.06;5012718;28;19983;-65
2022/08/01 02:33:47;;;;;;;;;;;;;;;-142.75;100.00;76267.16;5012646;28;19914;-65
2022/08/01 02:36:14;;;;;;;;;;;;;;;-142.75;100.00;76273.06;5012669;28;20007;-65
2022/08/01 02:38:44;;;;;;;;;;;;;;;-142.75;100.00;76271.09;5012444;28;19913;-63
2022/08/01 02:41:12;;;;;;;;;;;;;;;-142.75;100.00;76271.09;5012489;28;20388;-62
2022/08/01 02:43:40;;;;;;;;;;;;;;;-142.75;100.00;76269.13;5012575;28;19976;-62
2022/08/01 02:46:07;;;;;;;;;;;;;;;-142.75;100.00;76255.34;5012415;28;19917;-63
2022/08/01 02:48:35;;;;;;;;;;;;;;;-142.75;100.00;76253.38;5012239;28;20434;-63
2022/08/01 02:51:01;;;;;;;;;;;;;;;-142.75;100.00;76263.22;5012431;28;19964;-62
2022/08/01 02:53:29;;;;;;;;;;;;;;;-142.75;100.00;76259.28;5012392;28;20476;-63
2022/08/01 02:55:55;;;;;;;;;;;;;;;-142.75;100.00;76261.25;5012435;28;19913;-63
2022/08/01 02:58:23;;;;;;;;;;;;;;;-142.75;100.00;76255.34;5012154;28;20367;-62
2022/08/01 03:00:50;;;;;;;;;;;;;;;-142.75;100.00;76278.97;5011665;28;20286;-62
2022/08/01 03:03:16;;;;;;;;;;;;;;;-142.75;100.00;76269.13;5012368;28;20008;-64
2022/08/01 03:05:43;;;;;;;;;;;;;;;-142.75;100.00;76267.16;5012253;28;19957;-65
2022/08/01 03:08:09;;;;;;;;;;;;;;;-142.75;100.00;76290.78;5011982;28;20391;-65
2022/08/01 03:10:36;;;;;;;;;;;;;;;-142.75;100.00;76318.34;5012204;28;20330;-65
2022/08/01 03:13:03;;;;;;;;;;;;;;;-142.75;100.00;76298.66;5012266;28;19913;-65
2022/08/01 03:15:30;;;;;;;;;;;;;;;-142.75;100.00;76296.69;5012209;28;19913;-62
2022/08/01 03:17:56;;;;;;;;;;;;;;;-142.75;100.00;76298.66;5011976;28;20287;-65
2022/08/01 03:20:24;;;;;;;;;;;;;;;-142.75;100.00;76294.72;5012126;28;19913;-65
2022/08/01 03:22:52;;;;;;;;;;;;;;;-142.75;100.00;76282.91;5012929;28;19917;-64
2022/08/01 03:25:18;;;;;;;;;;;;;;;-142.75;100.00;76282.91;5015928;28;20361;-65
2022/08/01 03:27:45;;;;;;;;;;;;;;;-142.75;100.00;76298.66;5015659;28;19996;-65
2022/08/01 03:30:11;;;;;;;;;;;;;;;-142.75;100.00;76280.94;5015825;28;20286;-64
2022/08/01 03:32:36;;;;;;;;;;;;;;;-142.75;100.00;76278.97;5015853;28;20383;-64
2022/08/01 03:35:02;;;;;;;;;;;;;;;-142.75;100.00;76267.16;5015739;28;20032;-65
2022/08/01 03:37:31;;;;;;;;;;;;;;;-142.75;100.00;76275.03;5015479;28;20346;-65
2022/08/01 03:40:02;;;;;;;;;;;;;;;-142.75;100.00;76282.91;5015579;28;20018;-62
2022/08/01 03:42:32;;;;;;;;;;;;;;;-142.75;100.00;76286.84;5015760;28;19924;-65
2022/08/01 03:44:59;;;;;;;;;;;;;;;-142.75;100.00;76312.44;5015619;28;19913;-64
2022/08/01 03:47:28;;;;;;;;;;;;;;;-142.75;100.00;76294.72;5015242;28;19921;-65
2022/08/01 03:49:54;;;;;;;;;;;;;;;-142.75;100.00;76308.50;5015499;28;19920;-65
2022/08/01 03:52:20;;;;;;;;;;;;;;;-142.75;100.00;76298.66;5015494;28;20390;-65
2022/08/01 03:54:47;;;;;;;;;;;;;;;-142.75;100.00;76312.44;5012490;28;19988;-62
2022/08/01 03:57:13;;;;;;;;;;;;;;;-142.75;100.00;76290.78;5014310;28;20287;-62
2022/08/01 03:59:39;;;;;;;;;;;;;;;-142.75;100.00;76296.69;5015163;28;19913;-62
2022/08/01 04:02:05;;;;;;;;;;;;;;;-142.75;100.00;76306.53;5015027;28;20402;-64
2022/08/01 04:04:31;;;;;;;;;;;;;;;-142.75;100.00;76318.34;5015071;28;19921;-64
2022/08/01 04:06:56;;;;;;;;;;;;;;;-142.75;100.00;76306.53;5014862;28;19917;-64
2022/08/01 04:09:22;;;;;;;;;;;;;;;-142.75;100.00;76300.63;5014923;28;20417;-62
2022/08/01 04:11:47;;;;;;;;;;;;;;;-142.75;100.00;76300.63;5014932;28;19914;-62
2022/08/01 04:14:12;;;;;;;;;;;;;;;-142.75;100.00;76288.81;5014880;28;19996;-62
2022/08/01 04:16:38;;;;;;;;;;;;;;;-142.75;100.00;76298.66;5014563;28;19913;-64
2022/08/01 04:19:03;;;;;;;;;;;;;;;-142.75;100.00;76286.84;5014775;28;19913;-64
2022/08/01 04:21:30;;;;;;;;;;;;;;;-142.75;100.00;76277.00;5014666;28;19924;-65
2022/08/01 04:23:58;;;;;;;;;;;;;;;-142.75;100.00;76278.97;5014722;28;19921;-64
2022/08/01 04:26:24;;;;;;;;;;;;;;;-142.75;100.00;76275.03;5014692;28;19918;-64
2022/08/01 04:28:50;;;;;;;;;;;;;;;-142.75;100.00;76271.09;5014020;28;19921;-62
2022/08/01 04:31:16;;;;;;;;;;;;;;;-142.75;100.00;76278.97;5012821;28;20555;-62
2022/08/01 04:33:43;;;;;;;;;;;;;;;-142.75;100.00;76282.91;5012580;28;19922;-62
2022/08/01 04:36:10;;;;;;;;;;;;;;;-142.75;100.00;76310.47;5013650;28;19920;-62
2022/08/01 04:38:36;;;;;;;;;;;;;;;-142.75;100.00;76314.41;5014406;28;19921;-65
2022/08/01 04:41:02;;;;;;;;;;;;;;;-142.75;100.00;76322.28;5014447;28;19965;-65
2022/08/01 04:43:27;;;;;;;;;;;;;;;-142.75;100.00;76334.09;5014516;28;19921;-64
2022/08/01 04:45:53;;;;;;;;;;;;;;;-142.75;100.00;76328.19;5014409;28;19918;-64
2022/08/01 04:48:21;;;;;;;;;;;;;;;-142.75;100.00;76318.34;5014141;28;19914;-65
2022/08/01 04:50:47;;;;;;;;;;;;;;;-142.75;100.00;76302.59;5014368;28;19920;-65
2022/08/01 04:53:13;;;;;;;;;;;;;;;-142.75;100.00;76318.34;5014387;28;19914;-65
2022/08/01 04:55:38;;;;;;;;;;;;;;;-142.75;100.00;76332.13;5014377;28;20299;-65
2022/08/01 04:58:04;;;;;;;;;;;;;;;-142.75;100.00;76320.31;4996395;28;19913;-62
2022/08/01 05:00:29;;;;;;;;;;;;;;;-142.75;100.00;76322.28;5014136;28;19913;-62
2022/08/01 05:02:54;;;;;;;;;;;;;;;-142.75;100.00;76318.34;5014173;28;20444;-62
2022/08/01 05:05:20;;;;;;;;;;;;;;;-142.75;100.00;76326.22;5014074;28;19921;-65
2022/08/01 05:07:46;;;;;;;;;;;;;;;-142.75;100.00;76330.16;5013822;28;19920;-64
2022/08/01 05:10:11;;;;;;;;;;;;;;;-142.75;100.00;76310.47;4996700;28;20029;-64
2022/08/01 05:12:36;;;;;;;;;;;;;;;-142.75;100.00;76316.38;5013956;28;19914;-65
2022/08/01 05:15:01;;;;;;;;;;;;;;;-142.75;100.00;76310.47;5014126;28;20287;-64
2022/08/01 05:17:27;;;;;;;;;;;;;;;-142.75;100.00;76296.69;5013598;28;19917;-65
2022/08/01 05:19:52;;;;;;;;;;;;;;;-142.75;100.00;76275.03;5013844;28;20360;-65
2022/08/01 05:22:17;;;;;;;;;;;;;;;-142.75;100.00;76275.03;5013827;28;19996;-65
2022/08/01 05:24:42;;;;;;;;;;;;;;;-142.75;100.00;76275.03;5013799;28;19960;-65
2022/08/01 05:27:08;;;;;;;;;;;;;;;-142.75;100.00;76259.28;5013310;28;20302;-64
2022/08/01 05:29:33;;;;;;;;;;;;;;;-142.75;100.00;76243.53;5013559;28;19921;-62
2022/08/01 05:31:59;;;;;;;;;;;;;;;-142.75;100.00;76255.34;5013593;28;19921;-62
2022/08/01 05:34:24;;;;;;;;;;;;;;;-142.75;100.00;76255.34;5013562;28;20379;-62
2022/08/01 05:36:49;;;;;;;;;;;;;;;-142.75;100.00;76253.38;5013256;28;19913;-62
2022/08/01 05:39:15;;;;;;;;;;;;;;;-142.75;100.00;76275.03;5013493;28;19913;-62
2022/08/01 05:41:40;;;;;;;;;;;;;;;-142.75;100.00;76263.22;5040529;22;19925;-67
2022/08/01 05:44:05;;;;;;;;;;;;;;;-142.75;100.00;76257.31;5032499;28;20279;-67
2022/08/01 05:46:31;;;;;;;;;;;;;;;-142.75;100.00;76271.09;5031261;28;20287;-67
2022/08/01 05:48:57;;;;;;;;;;;;;;;-142.75;100.00;76235.66;5033020;28;19913;-67
2022/08/01 05:51:22;;;;;;;;;;;;;;;-142.75;100.00;76225.81;5032981;28;19984;-67
2022/08/01 05:53:47;;;;;;;;;;;;;;;-142.75;100.00;76186.47;5032991;28;19913;-67
2022/08/01 05:56:13;;;;;;;;;;;;;;;-142.75;100.00;76168.75;5031600;28;19924;-67
2022/08/01 05:58:38;;;;;;;;;;;;;;;-142.75;100.00;76149.06;5032629;28;19917;-67
2022/08/01 06:01:03;;;;;;;;;;;;;;;-142.75;100.00;76145.13;5031450;28;19941;-67
2022/08/01 06:03:31;;;;;;;;;;;;;;;-142.75;100.00;76153.00;5031544;28;20317;-67
2022/08/01 06:05:56;;;;;;;;;;;;;;;-142.75;100.00;76129.38;5032757;28;19917;-69
2022/08/01 06:08:21;;;;;;;;;;;;;;;-142.75;100.00;76141.19;5032480;28;19923;-67
2022/08/01 06:10:46;;;;;;;;;;;;;;;-142.75;100.00;76137.25;5032591;28;19913;-67
2022/08/01 06:13:12;;;;;;;;;;;;;;;-142.75;100.00;76113.63;5032708;28;19924;-67
2022/08/01 06:15:37;;;;;;;;;;;;;;;-142.75;100.00;76145.13;5032546;28;19920;-68
2022/08/01 06:18:03;;;;;;;;;;;;;;;-142.75;100.00;76149.06;5032507;28;19913;-67
2022/08/01 06:20:28;;;;;;;;;;;;;;;-142.75;100.00;76162.84;5032672;28;19955;-66
2022/08/01 06:22:54;;;;;;;;;;;;;;;-142.75;100.00;76166.78;5032509;28;19960;-67
2022/08/01 06:25:19;;;;;;;;;;;;;;;-142.75;100.00;76174.66;5032456;28;19928;-68
2022/08/01 06:27:44;;;;;;;;;;;;;;;-142.75;100.00;76206.13;5032178;28;19956;-67
2022/08/01 06:30:10;;;;;;;;;;;;;;;-142.75;100.00;76208.09;5032378;28;20008;-70
2022/08/01 06:32:35;;;;;;;;;;;;;;;-142.75;100.00;76245.50;5031236;28;20714;-67
2022/08/01 06:35:00;;;;;;;;;;;;;;;-142.75;100.00;76253.38;5032375;28;20385;-68
2022/08/01 06:37:32;;;;;;;;;;;;;;;-142.75;100.00;76255.34;5031428;28;19917;-67
2022/08/01 06:40:04;;;;;;;;;;;;;;;-142.75;100.00;76271.09;5031349;28;20409;-67
2022/08/01 06:42:34;;;;;;;;;;;;;;;-142.75;100.00;76280.94;5031128;28;20000;-67
2022/08/01 06:45:00;;;;;;;;;;;;;;;-142.75;100.00;76275.03;5031352;28;20263;-66
2022/08/01 06:47:25;;;;;;;;;;;;;;;-142.75;100.00;76267.16;5030817;28;19921;-67
2022/08/01 06:49:50;;;;;;;;;;;;;;;-142.75;100.00;76263.22;5031184;28;20438;-66
2022/08/01 06:52:15;;;;;;;;;;;;;;;-142.75;100.00;76261.25;5030943;28;19913;-67
2022/08/01 06:54:40;;;;;;;;;;;;;;;-142.75;100.00;76259.28;5031110;28;20012;-67
2022/08/01 06:57:06;;;;;;;;;;;;;;;-142.75;100.00;76251.41;5030757;28;20020;-66
2022/08/01 06:59:31;;;;;;;;;;;;;;;-142.75;100.00;76257.31;5033648;28;19917;-66
2022/08/01 07:01:57;;;;;;;;;;;;;;;-142.75;100.00;76235.66;5033830;28;19923;-67
2022/08/01 07:04:22;;;;;;;;;;;;;;;-142.75;100.00;76221.88;5035172;28;19917;-67
2022/08/01 07:06:47;;;;;;;;;;;;;;;-142.75;100.00;76217.94;5033484;28;19967;-67
2022/08/01 07:09:12;;;;;;;;;;;;;;;-142.75;100.00;76235.66;5040019;28;19924;-68
2022/08/01 07:11:37;;;;;;;;;;;;;;;-142.75;100.00;76249.44;5053192;28;19971;-67
2022/08/01 07:14:03;;;;;;;;;;;;;;;-142.75;100.00;76229.75;5054607;28;20848;-69
2022/08/01 07:16:28;;;;;;;;;;;;;;;-142.75;100.00;76217.94;5054602;28;20349;-67
2022/08/01 07:18:53;;;;;;;;;;;;;;;-142.75;100.00;76190.41;5054524;28;19912;-67
2022/08/01 07:21:18;;;;;;;;;;;;;;;-142.75;100.00;76206.13;5055018;28;19959;-66
2022/08/01 07:23:44;;;;;;;;;;;;;;;-142.75;100.00;76208.09;5053266;28;20572;-67
2022/08/01 07:26:09;;;;;;;;;;;;;;;-142.75;100.00;76227.78;5054384;28;19917;-67
2022/08/01 07:28:34;;;;;;;;;;;;;;;-142.75;100.00;76273.06;5053972;28;20006;-67
2022/08/01 07:30:59;;;;;;;;;;;;;;;-142.75;100.00;76296.69;5054547;28;19921;-67
2022/08/01 07:33:24;;;;;;;;;;;;;;;-142.75;100.00;76290.78;5054595;28;19920;-66
2022/08/01 07:35:49;;;;;;;;;;;;;;;-142.75;100.00;76310.47;5053365;28;19959;-66
2022/08/01 07:38:16;;;;;;;;;;;;;;;-142.75;100.00;76324.25;5053237;28;20015;-67
2022/08/01 07:40:42;;;;;;;;;;;;;;;-142.75;100.00;76341.97;5054494;28;20428;-67
2022/08/01 07:43:07;;;;;;;;;;;;;;;-142.75;100.00;76334.09;5054501;28;19920;-67
2022/08/01 07:45:32;;;;;;;;;;;;;;;-142.75;100.00;76353.78;5053281;28;19917;-66
2022/08/01 07:48:02;;;;;;;;;;;;;;;-142.75;100.00;76330.16;5054028;28;19912;-66
2022/08/01 07:50:27;;;;;;;;;;;;;;;-142.75;100.00;76326.22;5055131;28;19917;-66
2022/08/01 07:52:52;;;;;;;;;;;;;;;-142.75;100.00;76318.34;5055273;28;19919;-66
2022/08/01 07:55:17;;;;;;;;;;;;;;;-142.75;100.00;76340.00;5055557;28;19956;-66
2022/08/01 07:57:43;;;;;;;;;;;;;;;-142.75;100.00;76349.81;5054722;28;19927;-67
2022/08/01 08:00:09;;;;;;;;;;;;;;;-142.75;100.00;76365.56;5053910;28;20054;-66
2022/08/01 08:02:34;;;;;;;;;;;;;;;-142.75;100.00;76373.44;5055537;28;19913;-67
2022/08/01 08:04:59;;;;;;;;;;;;;;;-142.75;100.00;76351.81;5053912;28;19951;-67
2022/08/01 08:07:24;;;;;;;;;;;;;;;-142.75;100.00;76353.78;5054903;28;20366;-68
2022/08/01 08:09:50;;;;;;;;;;;;;;;-142.75;100.00;76367.53;5054578;28;20011;-67
2022/08/01 08:12:15;;;;;;;;;;;;;;;-142.75;100.00;76340.00;5055092;28;19913;-67
2022/08/01 08:14:40;;;;;;;;;;;;;;;-142.75;100.00;76334.09;5055070;28;20003;-67
2022/08/01 08:17:06;;;;;;;;;;;;;;;-142.75;100.00;76324.25;5054536;28;19920;-67
2022/08/01 08:19:33;;;;;;;;;;;;;;;-142.75;100.00;76308.50;5054960;28;19958;-67
2022/08/01 08:21:58;;;;;;;;;;;;;;;-142.75;100.00;76292.75;5053722;28;19919;-67
2022/08/01 08:24:23;;;;;;;;;;;;;;;-142.75;100.00;76306.53;5055430;28;19913;-67
2022/08/01 08:26:50;;;;;;;;;;;;;;;-142.75;100.00;76306.53;5055194;28;19939;-66
2022/08/01 08:29:17;;;;;;;;;;;;;;;-142.75;100.00;76277.00;5055037;28;19966;-67
2022/08/01 08:31:42;;;;;;;;;;;;;;;-142.75;100.00;76275.03;5054839;28;19916;-67
2022/08/01 08:34:08;;;;;;;;;;;;;;;-142.75;100.00;76265.19;5054763;28;19913;-67
2022/08/01 08:36:33;;;;;;;;;;;;;;;-142.75;100.00;76247.47;5054649;28;19913;-65
2022/08/01 08:39:01;;;;;;;;;;;;;;;-142.75;100.00;76219.91;5054653;28;19913;-67
2022/08/01 08:41:27;;;;;;;;;;;;;;;-142.75;100.00;76208.09;5054349;28;19917;-67
2022/08/01 08:43:53;;;;;;;;;;;;;;;-142.75;100.00;76182.53;5054637;28;19923;-67
2022/08/01 08:46:19;;;;;;;;;;;;;;;-142.75;100.00;76180.56;5054538;28;19943;-67
2022/08/01 08:48:44;;;;;;;;;;;;;;;-142.75;100.00;76164.81;5054303;28;19995;-66
2022/08/01 08:51:11;;;;;;;;;;;;;;;-142.75;100.00;76143.16;5054384;28;20367;-67
2022/08/01 08:53:38;;;;;;;;;;;;;;;-142.75;100.00;76115.59;5053115;28;20374;-64
2022/08/01 08:56:06;;;;;;;;;;;;;;;-142.75;100.00;76086.06;5054491;28;19967;-64
2022/08/01 08:58:37;;;;;;;;;;;;;;;-142.75;100.00;76042.78;5054336;28;19913;-64
2022/08/01 09:01:04;;;;;;;;;;;;;;;-142.75;100.00;75987.66;5054247;28;19939;-64
2022/08/01 09:03:29;;;;;;;;;;;;;;;-142.75;100.00;75946.34;5054191;28;19939;-64
2022/08/01 09:05:54;;;;;;;;;;;;;;;-142.75;100.00;75908.94;5053942;28;19917;-65
2022/08/01 09:08:20;;;;;;;;;;;;;;;-142.75;100.00;75893.19;5053635;28;19913;-65
2022/08/01 09:10:45;;;;;;;;;;;;;;;-142.75;100.00;75822.34;5052518;28;19944;-65
2022/08/01 09:13:14;;;;;;;;;;;;;;;-142.75;100.00;75806.59;5053875;28;19912;-67
2022/08/01 09:15:45;;;;;;;;;;;;;;;-142.75;100.00;75804.63;5053992;28;19912;-67
2022/08/01 09:18:31;;;;;;;;;;;;;;;-142.75;100.00;75818.41;5053618;28;19912;-67
2022/08/01 09:21:06;;;;;;;;;;;;;;;-142.75;100.00;75842.03;5053252;28;20000;-66
2022/08/01 09:23:42;;;;;;;;;;;;;;;-142.75;100.00;75869.56;5053814;28;19913;-67
2022/08/01 09:26:08;;;;;;;;;;;;;;;-142.75;100.00;75905.00;5053647;28;19916;-67
2022/08/01 09:28:33;;;;;;;;;;;;;;;-142.75;100.00;75826.28;5053726;28;19913;-67
2022/08/01 09:31:05;;;;;;;;;;;;;;;-142.75;100.00;75794.78;5053772;28;19984;-66
2022/08/01 09:33:46;;;;;;;;;;;;;;;-142.75;100.00;75773.13;5053727;28;19913;-67
2022/08/01 09:36:11;;;;;;;;;;;;;;;-142.75;100.00;75710.16;5053684;28;19913;-67
2022/08/01 09:38:37;;;;;;;;;;;;;;;-142.75;100.00;75680.63;5053521;28;20008;-67
2022/08/01 09:41:02;;;;;;;;;;;;;;;-142.75;100.00;75727.88;5053327;28;20375;-67
2022/08/01 09:43:29;;;;;;;;;;;;;;;-142.75;100.00;75771.16;5053470;28;19919;-67
2022/08/01 09:45:55;;;;;;;;;;;;;;;-142.75;100.00;75842.03;5053295;28;19920;-67
2022/08/01 09:48:21;;;;;;;;;;;;;;;-142.75;100.00;75855.81;5053097;28;20010;-67
2022/08/01 09:50:47;;;;;;;;;;;;;;;-142.75;100.00;75877.44;5052092;28;19959;-67
2022/08/01 09:53:13;;;;;;;;;;;;;;;-142.75;100.00;75869.56;5053275;28;19916;-67
2022/08/01 09:55:38;;;;;;;;;;;;;;;-142.75;100.00;75849.91;5053427;28;19912;-67
2022/08/01 09:58:04;;;;;;;;;;;;;;;-142.75;100.00;75851.88;5053067;28;20399;-67
2022/08/01 10:00:30;;;;;;;;;;;;;;;-142.75;100.00;75794.78;5053233;28;20373;-67
2022/08/01 10:02:55;;;;;;;;;;;;;;;-142.75;100.00;75765.25;5053151;28;19964;-67
2022/08/01 10:05:30;;;;;;;;;;;;;;;-142.75;100.00;75781.00;5053010;28;19958;-67
2022/08/01 10:07:59;;;;;;;;;;;;;;;-142.75;100.00;75806.59;5051507;28;19912;-68
2022/08/01 10:10:24;;;;;;;;;;;;;;;-142.75;100.00;75845.97;5053060;28;20390;-67
2022/08/01 10:12:51;;;;;;;;;;;;;;;-142.75;100.00;75869.56;5052880;28;19919;-68
2022/08/01 10:15:17;;;;;;;;;;;;;;;-142.75;100.00;75849.91;5052785;28;20425;-67
2022/08/01 10:17:46;;;;;;;;;;;;;;;-142.75;100.00;75771.16;5052738;28;19912;-67
2022/08/01 10:20:12;;;;;;;;;;;;;;;-142.75;100.00;75735.75;5052567;28;19912;-68
2022/08/01 10:22:37;;;;;;;;;;;;;;;-142.75;100.00;75702.28;5052963;28;19912;-67
2022/08/01 10:25:04;;;;;;;;;;;;;;;-142.75;100.00;75708.19;5052808;28;19958;-67
2022/08/01 10:27:32;;;;;;;;;;;;;;;-142.75;100.00;75706.22;5052290;28;19971;-67
2022/08/01 10:30:03;;;;;;;;;;;;;;;-142.75;100.00;75676.69;5052666;28;19912;-67
2022/08/01 10:32:32;;;;;;;;;;;;;;;-142.75;100.00;75704.25;5051780;28;19919;-67
2022/08/01 10:34:58;;;;;;;;;;;;;;;-142.75;100.00;75696.38;5052570;28;19988;-66
2022/08/01 10:37:23;;;;;;;;;;;;;;;-142.75;100.00;75700.31;5052226;28;20333;-67
2022/08/01 10:39:50;;;;;;;;;;;;;;;-142.75;100.00;75684.56;5052601;28;20313;-67
2022/08/01 10:42:17;;;;;;;;;;;;;;;-142.75;100.00;75692.44;5052264;28;19923;-67
2022/08/01 10:44:45;;;;;;;;;;;;;;;-142.75;100.00;75653.09;5052559;28;20301;-67
2022/08/01 10:47:12;;;;;;;;;;;;;;;-142.75;100.00;75666.88;5052159;28;19917;-67
2022/08/01 10:49:41;;;;;;;;;;;;;;;-142.75;100.00;75641.28;5052603;28;19995;-67
2022/08/01 10:52:06;;;;;;;;;;;;;;;-142.75;100.00;75601.91;5052228;28;19920;-67
2022/08/01 10:54:38;;;;;;;;;;;;;;;-142.75;100.00;75594.06;5052295;28;20297;-67
2022/08/01 10:57:05;;;;;;;;;;;;;;;-142.75;100.00;75590.13;5051891;28;20401;-67
2022/08/01 10:59:31;;;;;;;;;;;;;;;-142.75;100.00;75554.69;5052192;28;19928;-68
2022/08/01 11:01:58;;;;;;;;;;;;;;;-142.75;100.00;75538.94;5052060;28;19917;-68
2022/08/01 11:04:31;;;;;;;;;;;;;;;-142.75;100.00;75521.22;5052084;28;19912;-68
2022/08/01 11:07:06;;;;;;;;;;;;;;;-142.75;100.00;75574.38;5051741;28;19921;-67
2022/08/01 11:09:39;;;;;;;;;;;;;;;-142.75;100.00;75653.09;5052167;28;19913;-68
2022/08/01 11:12:09;;;;;;;;;;;;;;;-142.75;100.00;75592.09;5052048;28;19913;-67
2022/08/01 11:14:54;;;;;;;;;;;;;;;-142.75;100.00;75554.69;5052439;28;20297;-65
2022/08/01 11:17:32;;;;;;;;;;;;;;;-142.75;100.00;75511.41;5051526;28;19978;-66
2022/08/01 11:20:09;;;;;;;;;;;;;;;-142.75;100.00;75527.13;5050720;28;20303;-66
2022/08/01 11:22:52;;;;;;;;;;;;;;;-142.75;100.00;75568.47;5052050;28;19935;-67
2022/08/01 11:25:18;;;;;;;;;;;;;;;-142.75;100.00;75629.47;5051831;28;20294;-68
2022/08/01 11:27:43;;;;;;;;;;;;;;;-142.75;100.00;75680.63;5051443;28;20003;-67
2022/08/01 11:30:08;;;;;;;;;;;;;;;-142.75;100.00;75716.06;5050379;28;19913;-68
2022/08/01 11:32:45;;;;;;;;;;;;;;;-142.75;100.00;75786.91;5051855;28;19983;-67
2022/08/01 11:35:10;;;;;;;;;;;;;;;-142.75;100.00;75771.16;5050625;28;19913;-67
2022/08/01 11:37:35;;;;;;;;;;;;;;;-142.75;100.00;75782.97;5051401;28;19919;-68
2022/08/01 11:40:27;;;;;;;;;;;;;;;-142.75;100.00;75812.50;5051779;28;19921;-67
2022/08/01 11:43:11;;;;;;;;;;;;;;;-142.75;100.00;75824.31;5067694;22;19929;-62
2022/08/01 11:45:55;;;;;;;;;;;;;;;-142.75;100.00;75810.53;5035049;28;19927;-62
2022/08/01 11:48:21;;;;;;;;;;;;;;;-142.75;100.00;75769.19;5035946;28;20390;-63
2022/08/01 11:50:47;;;;;;;;;;;;;;;-142.75;100.00;75727.88;5035792;28;19917;-63
2022/08/01 11:53:15;;;;;;;;;;;;;;;-142.75;100.00;75611.75;5035655;28;20462;-63
2022/08/01 11:55:50;;;;;;;;;;;;;;;-142.75;100.00;75629.47;5035794;28;19917;-62
2022/08/01 11:58:16;;;;;;;;;;;;;;;-142.75;100.00;75666.88;5035567;28;20293;-62
2022/08/01 12:00:41;;;;;;;;;;;;;;;-142.75;100.00;75725.91;5035473;28;19955;-62
2022/08/01 12:03:08;;;;;;;;;;;;;;;-142.75;100.00;75731.81;5035300;28;19953;-63
2022/08/01 12:05:34;;;;;;;;;;;;;;;-142.75;100.00;75761.34;5035181;28;19939;-62
2022/08/01 12:08:00;;;;;;;;;;;;;;;-142.75;100.00;75771.16;5035263;28;20294;-62
2022/08/01 12:10:36;;;;;;;;;;;;;;;-142.75;100.00;75767.22;5035310;28;19920;-62
2022/08/01 12:13:03;;;;;;;;;;;;;;;-142.75;100.00;75714.09;5035273;28;19917;-62
2022/08/01 12:15:29;;;;;;;;;;;;;;;-142.75;100.00;75631.44;5035347;28;19917;-62
2022/08/01 12:17:58;;;;;;;;;;;;;;;-142.75;100.00;75597.97;5034713;28;19913;-62